Time;durP1;ratioP1;P1;durP2;ratioP2;P2;SDS_P1;SDS_P2;PMS_P1;PMS_P2;Temp;Humidity;BMP_temperature;BMP_pressure;BME280_temperature;BME280_humidity;BME280_pressure;Samples;Min_cycle;Max_cycle;Signal;HPM_P1;HPM_P2
2022/03/01 00:00:49;;;;;;;14.43;7.97;;;;;;;;;;5044864;28;20407;-79
2022/03/01 00:03:15;;;;;;;15.60;9.63;;;;;;;;;;5059401;28;20445;-79
2022/03/01 00:05:41;;;;;;;14.53;8.30;;;;;;;;;;5039589;28;20441;-78
2022/03/01 00:08:07;;;;;;;14.70;8.50;;;;;;;;;;5039151;28;20845;-79
2022/03/01 00:10:33;;;;;;;14.03;8.93;;;;;;;;;;5039850;28;20402;-79
2022/03/01 00:12:59;;;;;;;14.50;7.57;;;;;;;;;;5040753;28;20402;-79
2022/03/01 00:15:25;;;;;;;13.47;8.73;;;;;;;;;;5055257;28;20553;-79
2022/03/01 00:17:51;;;;;;;12.87;8.10;;;;;;;;;;5040428;28;20441;-79
2022/03/01 00:20:17;;;;;;;13.60;8.90;;;;;;;;;;5040689;28;20409;-79
2022/03/01 00:22:44;;;;;;;12.93;8.27;;;;;;;;;;5039694;28;20417;-79
2022/03/01 00:25:10;;;;;;;12.53;7.90;;;;;;;;;;5055506;28;20417;-79
2022/03/01 00:27:36;;;;;;;14.10;7.33;;;;;;;;;;5039596;28;20957;-79
2022/03/01 00:30:02;;;;;;;14.80;8.20;;;;;;;;;;5054746;28;20848;-80
2022/03/01 00:32:28;;;;;;;14.60;8.90;;;;;;;;;;5055496;28;20434;-79
2022/03/01 00:34:54;;;;;;;13.43;8.93;;;;;;;;;;5039926;28;20446;-79
2022/03/01 00:37:21;;;;;;;11.90;7.47;;;;;;;;;;5038864;28;20430;-79
2022/03/01 00:39:47;;;;;;;17.30;8.43;;;;;;;;;;5054251;28;20406;-79
2022/03/01 00:42:13;;;;;;;11.80;7.80;;;;;;;;;;5039423;28;20411;-79
2022/03/01 00:44:39;;;;;;;22.57;9.70;;;;;;;;;;5054336;28;20525;-82
2022/03/01 00:47:05;;;;;;;17.00;9.07;;;;;;;;;;5054539;28;20422;-80
2022/03/01 00:49:31;;;;;;;13.17;8.50;;;;;;;;;;5039760;28;20644;-80
2022/03/01 00:51:57;;;;;;;10.67;6.87;;;;;;;;;;5054742;28;20406;-80
2022/03/01 00:54:23;;;;;;;12.43;8.07;;;;;;;;;;5039490;28;20487;-80
2022/03/01 00:56:49;;;;;;;17.50;8.10;;;;;;;;;;5038755;28;20807;-81
2022/03/01 00:59:15;;;;;;;14.63;8.00;;;;;;;;;;5040706;28;20421;-78
2022/03/01 01:01:41;;;;;;;12.33;8.30;;;;;;;;;;5057151;28;20407;-79
2022/03/01 01:04:08;;;;;;;10.70;7.40;;;;;;;;;;5039759;28;20536;-80
2022/03/01 01:06:34;;;;;;;17.03;8.17;;;;;;;;;;5038986;28;20437;-80
2022/03/01 01:09:00;;;;;;;12.47;8.57;;;;;;;;;;5038549;28;20851;-80
2022/03/01 01:11:26;;;;;;;13.50;7.70;;;;;;;;;;5054034;28;20983;-80
2022/03/01 01:13:52;;;;;;;14.17;8.53;;;;;;;;;;5038636;28;20767;-80
2022/03/01 01:16:18;;;;;;;10.93;7.60;;;;;;;;;;5037722;28;20453;-79
2022/03/01 01:18:44;;;;;;;15.27;9.07;;;;;;;;;;5038046;28;20505;-79
2022/03/01 01:21:14;;;;;;;12.30;8.17;;;;;;;;;;5053545;28;20466;-80
2022/03/01 01:23:41;;;;;;;14.10;8.37;;;;;;;;;;5038500;28;20409;-80
2022/03/01 01:26:08;;;;;;;10.80;6.90;;;;;;;;;;5054463;28;20414;-80
2022/03/01 01:28:34;;;;;;;15.00;8.30;;;;;;;;;;5042297;28;20472;-79
2022/03/01 01:31:00;;;;;;;16.97;8.23;;;;;;;;;;5072865;28;20429;-79
2022/03/01 01:33:26;;;;;;;16.30;8.90;;;;;;;;;;5052066;28;20418;-79
2022/03/01 01:35:52;;;;;;;16.40;8.67;;;;;;;;;;5052056;28;20480;-79
2022/03/01 01:38:18;;;;;;;12.97;6.23;;;;;;;;;;5038438;28;20520;-79
2022/03/01 01:40:44;;;;;;;12.17;7.17;;;;;;;;;;5053421;28;20449;-80
2022/03/01 01:43:11;;;;;;;12.10;7.70;;;;;;;;;;5038121;28;20410;-79
2022/03/01 01:45:37;;;;;;;14.53;7.60;;;;;;;;;;5053663;28;20411;-80
2022/03/01 01:48:03;;;;;;;12.53;6.80;;;;;;;;;;5055549;28;21084;-79
2022/03/01 01:50:33;;;;;;;14.63;8.00;;;;;;;;;;5041425;28;20776;-80
2022/03/01 01:52:59;;;;;;;16.90;7.60;;;;;;;;;;5038981;28;20912;-80
2022/03/01 01:55:26;;;;;;;13.50;7.80;;;;;;;;;;5041813;28;20438;-80
2022/03/01 01:57:52;;;;;;;15.30;7.40;;;;;;;;;;5062785;28;20449;-80
2022/03/01 02:00:18;;;;;;;10.83;7.77;;;;;;;;;;5045210;28;20409;-80
2022/03/01 02:02:45;;;;;;;15.10;8.60;;;;;;;;;;5038596;28;20402;-80
2022/03/01 02:05:11;;;;;;;14.67;7.83;;;;;;;;;;5053427;28;20480;-80
2022/03/01 02:07:38;;;;;;;10.90;7.40;;;;;;;;;;5054286;28;20443;-80
2022/03/01 02:10:05;;;;;;;12.90;7.77;;;;;;;;;;5039512;28;20426;-80
2022/03/01 02:12:33;;;;;;;13.13;7.30;;;;;;;;;;5055102;28;20846;-80
2022/03/01 02:15:00;;;;;;;15.70;8.70;;;;;;;;;;5038746;28;20442;-80
2022/03/01 02:17:27;;;;;;;12.90;7.67;;;;;;;;;;5038635;28;20861;-80
2022/03/01 02:19:53;;;;;;;14.70;8.70;;;;;;;;;;5038428;28;20411;-80
2022/03/01 02:22:19;;;;;;;13.67;8.17;;;;;;;;;;5053903;28;20425;-80
2022/03/01 02:24:46;;;;;;;16.73;8.37;;;;;;;;;;5053181;28;20421;-80
2022/03/01 02:27:13;;;;;;;10.70;7.20;;;;;;;;;;5053330;28;20461;-80
2022/03/01 02:29:39;;;;;;;11.57;8.80;;;;;;;;;;5039765;28;20411;-80
2022/03/01 02:32:07;;;;;;;12.93;7.87;;;;;;;;;;5054304;28;20415;-80
2022/03/01 02:34:33;;;;;;;14.97;8.37;;;;;;;;;;5037788;28;20406;-80
2022/03/01 02:36:59;;;;;;;11.67;7.37;;;;;;;;;;5052792;28;20442;-80
2022/03/01 02:39:25;;;;;;;12.03;8.10;;;;;;;;;;5052541;28;20974;-80
2022/03/01 02:41:51;;;;;;;12.57;7.50;;;;;;;;;;5037699;28;20402;-80
2022/03/01 02:44:17;;;;;;;12.47;7.70;;;;;;;;;;5037490;28;20402;-80
2022/03/01 02:46:43;;;;;;;13.63;9.00;;;;;;;;;;5037830;28;20418;-80
2022/03/01 02:49:10;;;;;;;13.17;7.90;;;;;;;;;;5053622;28;20986;-80
2022/03/01 02:51:36;;;;;;;15.97;9.67;;;;;;;;;;5061684;28;20437;-79
2022/03/01 02:54:05;;;;;;;10.53;7.60;;;;;;;;;;5052381;28;20394;-79
2022/03/01 02:56:31;;;;;;;16.07;8.83;;;;;;;;;;5049968;28;20480;-79
2022/03/01 02:58:59;;;;;;;12.03;8.03;;;;;;;;;;5041043;28;20791;-80
2022/03/01 03:01:25;;;;;;;10.90;7.40;;;;;;;;;;5041795;28;20410;-80
2022/03/01 03:03:51;;;;;;;12.17;8.47;;;;;;;;;;5057738;28;20426;-80
2022/03/01 03:06:18;;;;;;;14.50;7.80;;;;;;;;;;5052806;28;20455;-80
2022/03/01 03:08:44;;;;;;;16.67;8.50;;;;;;;;;;5064608;28;20418;-80
2022/03/01 03:11:10;;;;;;;14.20;9.40;;;;;;;;;;5043456;28;20415;-80
2022/03/01 03:13:36;;;;;;;16.70;9.37;;;;;;;;;;5065512;28;20468;-79
2022/03/01 03:16:03;;;;;;;13.57;8.53;;;;;;;;;;5056778;28;20482;-80
2022/03/01 03:18:30;;;;;;;11.30;7.90;;;;;;;;;;5040695;28;20506;-80
2022/03/01 03:20:56;;;;;;;15.53;8.40;;;;;;;;;;5055745;28;20485;-80
2022/03/01 03:23:22;;;;;;;14.70;7.57;;;;;;;;;;5041292;28;20949;-80
2022/03/01 03:25:48;;;;;;;15.57;8.17;;;;;;;;;;5056324;28;20406;-80
2022/03/01 03:28:14;;;;;;;17.70;9.47;;;;;;;;;;5055771;28;20450;-80
2022/03/01 03:30:40;;;;;;;12.90;8.43;;;;;;;;;;5040258;28;20426;-80
2022/03/01 03:33:06;;;;;;;13.80;8.83;;;;;;;;;;5040370;28;20470;-80
2022/03/01 03:35:32;;;;;;;14.30;7.57;;;;;;;;;;5056323;28;20542;-80
2022/03/01 03:38:01;;;;;;;13.00;7.87;;;;;;;;;;5041159;28;20512;-80
2022/03/01 03:40:27;;;;;;;13.37;8.03;;;;;;;;;;5041126;28;20402;-79
2022/03/01 03:42:53;;;;;;;12.70;7.93;;;;;;;;;;5040008;28;20460;-80
2022/03/01 03:45:19;;;;;;;10.90;7.60;;;;;;;;;;5055936;28;20779;-79
2022/03/01 03:47:45;;;;;;;14.17;8.03;;;;;;;;;;5055331;28;20576;-80
2022/03/01 03:50:11;;;;;;;16.90;7.77;;;;;;;;;;5040058;28;20537;-80
2022/03/01 03:52:38;;;;;;;14.43;9.10;;;;;;;;;;5055807;28;20415;-80
2022/03/01 03:55:05;;;;;;;14.13;8.27;;;;;;;;;;5040261;28;20446;-79
2022/03/01 03:57:32;;;;;;;14.73;9.07;;;;;;;;;;5055880;28;20429;-80
2022/03/01 03:59:58;;;;;;;16.50;8.17;;;;;;;;;;5041285;28;20414;-80
2022/03/01 04:02:24;;;;;;;11.70;7.17;;;;;;;;;;5040409;28;20406;-81
2022/03/01 04:04:50;;;;;;;11.07;7.63;;;;;;;;;;5058715;28;20438;-80
2022/03/01 04:07:16;;;;;;;17.53;7.83;;;;;;;;;;5039630;28;20415;-80
2022/03/01 04:09:42;;;;;;;13.87;8.60;;;;;;;;;;5040009;28;20409;-80
2022/03/01 04:12:10;;;;;;;13.47;8.10;;;;;;;;;;5040005;28;20450;-80
2022/03/01 04:14:36;;;;;;;13.23;7.63;;;;;;;;;;5055215;28;20403;-80
2022/03/01 04:17:03;;;;;;;12.60;8.43;;;;;;;;;;5055142;28;20568;-80
2022/03/01 04:19:29;;;;;;;12.63;7.77;;;;;;;;;;5054887;28;20422;-80
2022/03/01 04:21:55;;;;;;;10.30;7.30;;;;;;;;;;5039874;28;20437;-80
2022/03/01 04:24:21;;;;;;;10.67;6.80;;;;;;;;;;5039723;28;20401;-80
2022/03/01 04:26:48;;;;;;;11.27;8.47;;;;;;;;;;5058430;28;20461;-80
2022/03/01 04:29:14;;;;;;;11.90;7.90;;;;;;;;;;5071681;28;20421;-80
2022/03/01 04:31:40;;;;;;;13.63;8.10;;;;;;;;;;5058736;28;20455;-80
2022/03/01 04:34:06;;;;;;;13.83;8.00;;;;;;;;;;5059295;28;20421;-79
2022/03/01 04:36:32;;;;;;;13.50;9.13;;;;;;;;;;5075031;28;20583;-79
2022/03/01 04:38:58;;;;;;;14.10;8.20;;;;;;;;;;5074107;28;20433;-80
2022/03/01 04:41:24;;;;;;;12.37;8.00;;;;;;;;;;5075710;28;20939;-80
2022/03/01 04:43:51;;;;;;;15.87;8.47;;;;;;;;;;5059481;28;20477;-80
2022/03/01 04:46:18;;;;;;;13.83;8.20;;;;;;;;;;5075433;28;20414;-80
2022/03/01 04:48:45;;;;;;;14.37;7.87;;;;;;;;;;5074821;28;20418;-80
2022/03/01 04:51:11;;;;;;;15.80;8.83;;;;;;;;;;5075420;28;20788;-81
2022/03/01 04:53:37;;;;;;;17.20;8.63;;;;;;;;;;5059413;28;20409;-80
2022/03/01 04:56:03;;;;;;;17.50;7.40;;;;;;;;;;5059986;28;20480;-80
2022/03/01 04:58:30;;;;;;;13.73;8.20;;;;;;;;;;5076041;28;20437;-80
2022/03/01 05:00:56;;;;;;;13.20;7.20;;;;;;;;;;5063643;28;20409;-79
2022/03/01 05:03:23;;;;;;;12.77;8.50;;;;;;;;;;5082001;28;20405;-79
2022/03/01 05:05:49;;;;;;;11.77;8.10;;;;;;;;;;5079315;28;20413;-80
2022/03/01 05:08:15;;;;;;;11.53;7.50;;;;;;;;;;5080972;28;20429;-79
2022/03/01 05:10:42;;;;;;;16.60;7.27;;;;;;;;;;5059639;28;20436;-80
2022/03/01 05:13:08;;;;;;;12.67;7.13;;;;;;;;;;5045120;28;20502;-79
2022/03/01 05:15:34;;;;;;;16.13;8.43;;;;;;;;;;5062249;28;20453;-79
2022/03/01 05:18:00;;;;;;;12.40;7.87;;;;;;;;;;5055809;28;20487;-79
2022/03/01 05:20:26;;;;;;;16.27;8.97;;;;;;;;;;5076863;28;20409;-80
2022/03/01 05:22:53;;;;;;;15.37;8.60;;;;;;;;;;5076182;28;20774;-80
2022/03/01 05:25:20;;;;;;;14.30;7.77;;;;;;;;;;5076801;28;20941;-79
2022/03/01 05:27:48;;;;;;;13.93;7.80;;;;;;;;;;5084416;22;20932;-78
2022/03/01 05:30:15;;;;;;;14.17;8.00;;;;;;;;;;5034539;28;20399;-79
2022/03/01 05:32:46;;;;;;;12.37;8.40;;;;;;;;;;5034542;28;20770;-78
2022/03/01 05:35:13;;;;;;;12.83;7.60;;;;;;;;;;5034410;28;20517;-77
2022/03/01 05:37:40;;;;;;;12.87;7.30;;;;;;;;;;5034662;28;20419;-78
2022/03/01 05:40:07;;;;;;;10.60;7.37;;;;;;;;;;5035040;28;20391;-77
2022/03/01 05:42:33;;;;;;;14.07;7.73;;;;;;;;;;5035361;28;20774;-77
2022/03/01 05:44:59;;;;;;;12.00;7.30;;;;;;;;;;5035532;28;20402;-78
2022/03/01 05:47:26;;;;;;;9.50;6.40;;;;;;;;;;5033259;28;20813;-77
2022/03/01 05:49:52;;;;;;;11.97;7.60;;;;;;;;;;5033856;28;20407;-78
2022/03/01 05:52:18;;;;;;;8.90;6.10;;;;;;;;;;5035031;28;20398;-78
2022/03/01 05:54:44;;;;;;;18.90;8.27;;;;;;;;;;5034456;28;20399;-78
2022/03/01 05:57:11;;;;;;;13.83;7.83;;;;;;;;;;5034573;28;20426;-77
2022/03/01 05:59:37;;;;;;;14.23;7.80;;;;;;;;;;5024223;28;20435;-78
2022/03/01 06:02:03;;;;;;;14.60;7.60;;;;;;;;;;5024041;28;20775;-77
2022/03/01 06:04:29;;;;;;;18.60;7.33;;;;;;;;;;5020242;28;20432;-77
2022/03/01 06:06:55;;;;;;;10.73;7.40;;;;;;;;;;5044621;28;20492;-78
2022/03/01 06:09:21;;;;;;;12.20;7.40;;;;;;;;;;5051259;28;20663;-78
2022/03/01 06:11:47;;;;;;;10.50;6.83;;;;;;;;;;5034354;28;20461;-78
2022/03/01 06:14:13;;;;;;;10.93;6.90;;;;;;;;;;5034468;28;20501;-78
2022/03/01 06:16:40;;;;;;;13.83;7.77;;;;;;;;;;5032484;28;20443;-77
2022/03/01 06:19:06;;;;;;;10.53;6.20;;;;;;;;;;5029357;28;20420;-78
2022/03/01 06:21:32;;;;;;;16.43;7.63;;;;;;;;;;5018333;28;20418;-78
2022/03/01 06:24:00;;;;;;;12.87;7.73;;;;;;;;;;5030240;28;20414;-77
2022/03/01 06:26:26;;;;;;;13.50;7.63;;;;;;;;;;5019093;28;20463;-77
2022/03/01 06:28:52;;;;;;;9.70;6.77;;;;;;;;;;5017993;28;20803;-77
2022/03/01 06:31:18;;;;;;;13.10;8.37;;;;;;;;;;5037233;28;20410;-79
2022/03/01 06:33:44;;;;;;;11.80;7.43;;;;;;;;;;5039343;28;20483;-78
2022/03/01 06:36:11;;;;;;;11.97;7.50;;;;;;;;;;5042936;28;20500;-79
2022/03/01 06:38:37;;;;;;;10.10;6.93;;;;;;;;;;5040525;28;20446;-78
2022/03/01 06:41:03;;;;;;;8.40;6.30;;;;;;;;;;5040259;28;20390;-78
2022/03/01 06:43:29;;;;;;;16.33;7.10;;;;;;;;;;5024389;28;20840;-78
2022/03/01 06:45:55;;;;;;;11.03;7.17;;;;;;;;;;5023329;28;20411;-78
2022/03/01 06:48:21;;;;;;;11.13;6.77;;;;;;;;;;5028963;28;20426;-78
2022/03/01 06:50:47;;;;;;;9.93;7.47;;;;;;;;;;5026911;28;20438;-77
2022/03/01 06:53:14;;;;;;;14.43;6.70;;;;;;;;;;5018166;28;20407;-77
2022/03/01 06:55:42;;;;;;;11.30;7.23;;;;;;;;;;5034375;28;20456;-76
2022/03/01 06:58:09;;;;;;;11.23;8.03;;;;;;;;;;5037362;28;20430;-78
2022/03/01 07:00:35;;;;;;;13.03;6.90;;;;;;;;;;5024694;28;20411;-77
2022/03/01 07:03:01;;;;;;;12.60;7.27;;;;;;;;;;5032617;28;20495;-77
2022/03/01 07:05:27;;;;;;;10.43;6.13;;;;;;;;;;5037114;28;20476;-77
2022/03/01 07:07:53;;;;;;;11.80;6.97;;;;;;;;;;5036776;28;20509;-77
2022/03/01 07:10:19;;;;;;;12.53;6.50;;;;;;;;;;5036922;28;20402;-79
2022/03/01 07:12:47;;;;;;;16.07;7.20;;;;;;;;;;5036662;28;20410;-76
2022/03/01 07:15:13;;;;;;;12.23;7.40;;;;;;;;;;5044629;28;20459;-77
2022/03/01 07:17:39;;;;;;;14.00;7.30;;;;;;;;;;5037548;28;20434;-77
2022/03/01 07:20:07;;;;;;;10.87;6.60;;;;;;;;;;5021143;28;20416;-77
2022/03/01 07:22:33;;;;;;;12.97;6.90;;;;;;;;;;5036825;28;20453;-77
2022/03/01 07:24:59;;;;;;;14.43;7.53;;;;;;;;;;5036256;28;20988;-77
2022/03/01 07:27:25;;;;;;;10.40;7.47;;;;;;;;;;5035853;28;20450;-77
2022/03/01 07:29:51;;;;;;;9.90;7.00;;;;;;;;;;5036100;28;20480;-77
2022/03/01 07:32:17;;;;;;;11.97;6.93;;;;;;;;;;5035941;28;20506;-77
2022/03/01 07:34:43;;;;;;;12.73;7.90;;;;;;;;;;5036016;28;20398;-77
2022/03/01 07:37:10;;;;;;;10.63;7.30;;;;;;;;;;5029954;28;20545;-77
2022/03/01 07:39:36;;;;;;;11.95;8.10;;;;;;;;;;5025851;28;20461;-77
2022/03/01 07:42:02;;;;;;;13.27;7.03;;;;;;;;;;5038561;28;20167;-76
2022/03/01 07:44:28;;;;;;;12.70;7.60;;;;;;;;;;5033138;28;20466;-77
2022/03/01 07:46:54;;;;;;;11.70;7.53;;;;;;;;;;5024206;28;20415;-77
2022/03/01 07:49:20;;;;;;;10.77;7.07;;;;;;;;;;5019564;28;20415;-78
2022/03/01 07:51:46;;;;;;;13.27;7.43;;;;;;;;;;5024600;28;20470;-78
2022/03/01 07:54:13;;;;;;;15.77;7.50;;;;;;;;;;5038346;28;20827;-78
2022/03/01 07:56:40;;;;;;;9.47;7.10;;;;;;;;;;5040218;28;20447;-78
2022/03/01 07:59:06;;;;;;;14.27;7.87;;;;;;;;;;5038676;28;20934;-78
2022/03/01 08:01:32;;;;;;;12.20;7.43;;;;;;;;;;5036262;28;20409;-75
2022/03/01 08:03:58;;;;;;;9.93;7.30;;;;;;;;;;5035731;28;20444;-75
2022/03/01 08:06:26;;;;;;;12.20;7.07;;;;;;;;;;5024579;28;20850;-75
2022/03/01 08:08:52;;;;;;;12.70;7.33;;;;;;;;;;5035179;28;20477;-75
2022/03/01 08:11:18;;;;;;;13.17;7.07;;;;;;;;;;5031999;28;20954;-77
2022/03/01 08:13:44;;;;;;;12.20;6.97;;;;;;;;;;5023581;28;21004;-78
2022/03/01 08:16:10;;;;;;;11.67;7.37;;;;;;;;;;5031495;28;20446;-76
2022/03/01 08:18:37;;;;;;;13.27;7.17;;;;;;;;;;5031598;28;20426;-77
2022/03/01 08:21:03;;;;;;;8.93;6.47;;;;;;;;;;5034265;28;20934;-77
2022/03/01 08:23:29;;;;;;;10.83;7.00;;;;;;;;;;5027682;28;20423;-77
2022/03/01 08:25:55;;;;;;;13.53;7.23;;;;;;;;;;5016025;28;20414;-77
2022/03/01 08:28:21;;;;;;;10.30;7.67;;;;;;;;;;5028229;28;20488;-76
2022/03/01 08:30:47;;;;;;;9.97;6.83;;;;;;;;;;5036195;28;20449;-77
2022/03/01 08:33:16;;;;;;;15.83;8.00;;;;;;;;;;5029312;28;20413;-77
2022/03/01 08:35:42;;;;;;;15.33;6.93;;;;;;;;;;5031722;28;20474;-77
2022/03/01 08:38:08;;;;;;;11.33;7.43;;;;;;;;;;5026898;28;20517;-77
2022/03/01 08:40:37;;;;;;;13.67;7.30;;;;;;;;;;5025337;28;20509;-76
2022/03/01 08:43:04;;;;;;;15.50;9.10;;;;;;;;;;5028154;28;20394;-76
2022/03/01 08:45:30;;;;;;;10.73;6.80;;;;;;;;;;5027154;28;20453;-76
2022/03/01 08:47:56;;;;;;;17.20;10.13;;;;;;;;;;5042346;28;20477;-76
2022/03/01 08:50:22;;;;;;;13.67;7.73;;;;;;;;;;5032953;28;20417;-76
2022/03/01 08:52:49;;;;;;;23.97;7.63;;;;;;;;;;5033416;28;20406;-76
2022/03/01 08:55:15;;;;;;;12.97;7.13;;;;;;;;;;5025525;28;20450;-77
2022/03/01 08:57:42;;;;;;;13.43;7.07;;;;;;;;;;5024375;28;20438;-78
2022/03/01 09:00:09;;;;;;;15.43;7.10;;;;;;;;;;5022261;28;20855;-77
2022/03/01 09:02:35;;;;;;;8.93;6.00;;;;;;;;;;5042697;28;20511;-77
2022/03/01 09:05:02;;;;;;;9.30;6.97;;;;;;;;;;5022487;28;20440;-78
2022/03/01 09:07:28;;;;;;;11.77;6.80;;;;;;;;;;5026964;28;20520;-78
2022/03/01 09:09:54;;;;;;;9.60;5.77;;;;;;;;;;5024649;28;20434;-76
2022/03/01 09:12:20;;;;;;;8.87;6.30;;;;;;;;;;5023582;28;20791;-77
2022/03/01 09:14:46;;;;;;;11.97;6.73;;;;;;;;;;5019162;28;20866;-76
2022/03/01 09:17:12;;;;;;;8.93;6.70;;;;;;;;;;5031520;28;20941;-76
2022/03/01 09:19:38;;;;;;;12.70;8.23;;;;;;;;;;5025378;28;20992;-76
2022/03/01 09:22:04;;;;;;;9.50;6.33;;;;;;;;;;5029926;28;20513;-77
2022/03/01 09:24:30;;;;;;;16.83;6.63;;;;;;;;;;5030723;28;20414;-77
2022/03/01 09:27:01;;;;;;;9.27;6.73;;;;;;;;;;5030373;28;20414;-77
2022/03/01 09:29:28;;;;;;;10.33;7.17;;;;;;;;;;5032041;28;20736;-77
2022/03/01 09:31:54;;;;;;;11.47;6.23;;;;;;;;;;5032816;28;20464;-76
2022/03/01 09:34:21;;;;;;;11.43;6.13;;;;;;;;;;5032290;28;20453;-77
2022/03/01 09:36:47;;;;;;;10.40;6.10;;;;;;;;;;5030899;28;20516;-77
2022/03/01 09:39:13;;;;;;;7.90;6.20;;;;;;;;;;5029935;28;20419;-77
2022/03/01 09:41:39;;;;;;;17.23;7.10;;;;;;;;;;5032569;28;20442;-78
2022/03/01 09:44:05;;;;;;;12.20;6.30;;;;;;;;;;5036190;28;20549;-78
2022/03/01 09:46:32;;;;;;;8.87;6.07;;;;;;;;;;5032779;28;20430;-78
2022/03/01 09:48:58;;;;;;;8.73;6.37;;;;;;;;;;5033369;28;20431;-78
2022/03/01 09:51:26;;;;;;;9.87;6.20;;;;;;;;;;5041261;28;20438;-78
2022/03/01 09:53:52;;;;;;;8.23;5.87;;;;;;;;;;5033217;28;20457;-78
2022/03/01 09:56:19;;;;;;;8.33;6.03;;;;;;;;;;5030891;28;20462;-78
2022/03/01 09:58:48;;;;;;;8.50;6.03;;;;;;;;;;5032403;28;20438;-78
2022/03/01 10:01:16;;;;;;;9.60;5.97;;;;;;;;;;5034745;28;20422;-79
2022/03/01 10:03:48;;;;;;;15.17;6.17;;;;;;;;;;5034449;28;20430;-79
2022/03/01 10:06:14;;;;;;;8.70;6.00;;;;;;;;;;5028339;28;20485;-77
2022/03/01 10:08:41;;;;;;;10.90;6.47;;;;;;;;;;5026999;28;20481;-77
2022/03/01 10:11:07;;;;;;;11.70;6.27;;;;;;;;;;5030199;28;20426;-77
2022/03/01 10:13:35;;;;;;;9.30;5.40;;;;;;;;;;5034301;28;20418;-77
2022/03/01 10:16:04;;;;;;;8.75;6.05;;;;;;;;;;5034813;28;20437;-78
2022/03/01 10:18:31;;;;;;;10.00;6.03;;;;;;;;;;5038145;28;20199;-77
2022/03/01 10:21:01;;;;;;;14.37;6.77;;;;;;;;;;5034846;28;20414;-77
2022/03/01 10:23:28;;;;;;;9.30;6.67;;;;;;;;;;5017938;28;20767;-77
2022/03/01 10:25:54;;;;;;;9.97;6.37;;;;;;;;;;5036682;28;20406;-77
2022/03/01 10:28:31;;;;;;;8.90;5.97;;;;;;;;;;5042085;28;20450;-77
2022/03/01 10:30:57;;;;;;;13.73;7.33;;;;;;;;;;5036572;28;20428;-77
2022/03/01 10:33:23;;;;;;;11.37;6.67;;;;;;;;;;5035641;28;20437;-77
2022/03/01 10:35:57;;;;;;;9.73;6.33;;;;;;;;;;5037722;28;20450;-78
2022/03/01 10:38:24;;;;;;;9.87;6.23;;;;;;;;;;5024735;28;20443;-78
2022/03/01 10:40:56;;;;;;;10.33;6.60;;;;;;;;;;5038333;28;20969;-77
2022/03/01 10:43:25;;;;;;;9.93;6.13;;;;;;;;;;5032972;28;20965;-77
2022/03/01 10:45:51;;;;;;;11.33;6.50;;;;;;;;;;5031677;28;20461;-76
2022/03/01 10:48:24;;;;;;;12.87;6.43;;;;;;;;;;5030566;28;20954;-77
2022/03/01 10:51:19;;;;;;;8.33;6.17;;;;;;;;;;5035867;28;20486;-78
2022/03/01 10:53:45;;;;;;;11.83;6.10;;;;;;;;;;5036763;28;20712;-78
2022/03/01 10:56:13;;;;;;;9.80;5.97;;;;;;;;;;5038133;28;20499;-78
2022/03/01 10:58:40;;;;;;;9.10;6.73;;;;;;;;;;5040005;28;20655;-78
2022/03/01 11:01:07;;;;;;;9.23;6.40;;;;;;;;;;5033315;28;20417;-77
2022/03/01 11:03:34;;;;;;;10.13;6.77;;;;;;;;;;5035381;28;20444;-77
2022/03/01 11:06:00;;;;;;;10.33;5.80;;;;;;;;;;5033430;28;20803;-77
2022/03/01 11:08:34;;;;;;;10.20;5.33;;;;;;;;;;5035150;28;20435;-78
2022/03/01 11:11:00;;;;;;;7.10;5.47;;;;;;;;;;5038664;28;20980;-78
2022/03/01 11:13:27;;;;;;;6.43;5.50;;;;;;;;;;5036904;28;20434;-78
2022/03/01 11:15:59;;;;;;;8.00;5.77;;;;;;;;;;5039306;28;20453;-78
2022/03/01 11:18:40;;;;;;;7.70;4.87;;;;;;;;;;5031826;28;20451;-78
2022/03/01 11:21:08;;;;;;;8.90;5.13;;;;;;;;;;5028963;28;20794;-77
2022/03/01 11:23:35;;;;;;;11.73;6.10;;;;;;;;;;5029972;28;20422;-77
2022/03/01 11:26:08;;;;;;;12.43;5.47;;;;;;;;;;5035872;28;20410;-77
2022/03/01 11:28:40;;;;;;;9.57;5.67;;;;;;;;;;5034821;28;20461;-77
2022/03/01 11:31:18;;;;;;;8.47;5.10;;;;;;;;;;5033562;28;20421;-77
2022/03/01 11:33:53;;;;;;;8.17;5.23;;;;;;;;;;5034352;28;20759;-77
2022/03/01 11:36:23;;;;;;;7.87;5.93;;;;;;;;;;5028218;28;20965;-77
2022/03/01 11:38:49;;;;;;;7.73;5.80;;;;;;;;;;5033237;28;20445;-77
2022/03/01 11:41:20;;;;;;;6.53;5.30;;;;;;;;;;5032121;28;20941;-76
2022/03/01 11:43:51;;;;;;;10.60;5.80;;;;;;;;;;5027712;28;20403;-75
2022/03/01 11:46:18;;;;;;;9.30;5.23;;;;;;;;;;5026951;28;20476;-76
2022/03/01 11:48:54;;;;;;;10.43;5.50;;;;;;;;;;5034672;28;20549;-77
2022/03/01 11:51:34;;;;;;;9.50;5.73;;;;;;;;;;5029777;28;20415;-76
2022/03/01 11:54:02;;;;;;;5.90;4.90;;;;;;;;;;5023915;28;20422;-77
2022/03/01 11:56:28;;;;;;;7.50;4.50;;;;;;;;;;5028533;28;20452;-77
2022/03/01 11:58:54;;;;;;;7.07;5.23;;;;;;;;;;5034328;28;20472;-77
2022/03/01 12:01:23;;;;;;;6.30;4.77;;;;;;;;;;5033684;28;20410;-77
2022/03/01 12:03:53;;;;;;;7.23;4.83;;;;;;;;;;5033825;28;20418;-77
2022/03/01 12:06:21;;;;;;;11.13;5.00;;;;;;;;;;5033704;28;20426;-76
2022/03/01 12:08:55;;;;;;;9.13;4.73;;;;;;;;;;5031184;28;20535;-77
2022/03/01 12:11:31;;;;;;;8.20;4.87;;;;;;;;;;5034850;28;20422;-77
2022/03/01 12:14:01;;;;;;;7.20;5.27;;;;;;;;;;5034652;28;20425;-76
2022/03/01 12:16:28;;;;;;;8.33;5.07;;;;;;;;;;5030278;28;20521;-76
2022/03/01 12:19:04;;;;;;;9.20;4.70;;;;;;;;;;5032972;28;20445;-76
2022/03/01 12:21:30;;;;;;;6.17;4.30;;;;;;;;;;5032649;28;20406;-77
2022/03/01 12:23:56;;;;;;;16.17;5.83;;;;;;;;;;5032065;28;20455;-77
2022/03/01 12:26:23;;;;;;;6.27;4.53;;;;;;;;;;5032631;28;20505;-77
2022/03/01 12:28:51;;;;;;;7.03;4.93;;;;;;;;;;5033553;28;20450;-76
2022/03/01 12:31:18;;;;;;;8.10;4.77;;;;;;;;;;5034514;28;20426;-77
2022/03/01 12:33:48;;;;;;;8.17;4.30;;;;;;;;;;5035392;28;20428;-78
2022/03/01 12:36:22;;;;;;;5.70;4.67;;;;;;;;;;5032774;28;20454;-77
2022/03/01 12:38:59;;;;;;;10.93;4.90;;;;;;;;;;5033200;28;20446;-77
2022/03/01 12:41:26;;;;;;;5.13;4.23;;;;;;;;;;5031491;28;20802;-76
2022/03/01 12:43:57;;;;;;;5.63;3.80;;;;;;;;;;5033246;28;20422;-77
2022/03/01 12:46:24;;;;;;;6.87;4.40;;;;;;;;;;5032297;28;20465;-77
2022/03/01 12:48:50;;;;;;;5.13;4.10;;;;;;;;;;5030324;28;20439;-77
2022/03/01 12:51:16;;;;;;;7.43;4.10;;;;;;;;;;5032508;28;20420;-77
2022/03/01 12:53:52;;;;;;;5.73;3.93;;;;;;;;;;5033875;28;20418;-77
2022/03/01 12:56:19;;;;;;;5.50;4.20;;;;;;;;;;5029879;28;20453;-77
2022/03/01 12:58:46;;;;;;;5.60;4.03;;;;;;;;;;5034048;28;20449;-77
2022/03/01 13:01:12;;;;;;;5.53;4.10;;;;;;;;;;5034029;28;20471;-77
2022/03/01 13:03:38;;;;;;;7.20;3.93;;;;;;;;;;5032532;28;20422;-77
2022/03/01 13:06:15;;;;;;;8.57;4.40;;;;;;;;;;5033699;28;20456;-77
2022/03/01 13:08:42;;;;;;;4.40;4.00;;;;;;;;;;5025952;28;20448;-77
2022/03/01 13:11:12;;;;;;;8.30;4.87;;;;;;;;;;5023981;28;20854;-77
2022/03/01 13:13:44;;;;;;;11.03;4.80;;;;;;;;;;5026129;28;20425;-77
2022/03/01 13:16:10;;;;;;;6.30;4.07;;;;;;;;;;5028087;28;21011;-77
2022/03/01 13:18:36;;;;;;;7.67;5.33;;;;;;;;;;5032257;28;20439;-78
2022/03/01 13:21:02;;;;;;;6.17;4.10;;;;;;;;;;5031684;28;20496;-77
2022/03/01 13:23:30;;;;;;;6.33;4.30;;;;;;;;;;5030914;28;20415;-77
2022/03/01 13:25:57;;;;;;;8.23;5.03;;;;;;;;;;5032812;28;20434;-76
2022/03/01 13:28:34;;;;;;;4.67;4.00;;;;;;;;;;5031812;28;20541;-77
2022/03/01 13:31:00;;;;;;;8.13;4.60;;;;;;;;;;5032646;28;20418;-77
2022/03/01 13:33:28;;;;;;;7.03;3.87;;;;;;;;;;5030811;28;20417;-77
2022/03/01 13:35:54;;;;;;;5.00;3.97;;;;;;;;;;5025887;28;20474;-77
2022/03/01 13:38:21;;;;;;;7.17;5.03;;;;;;;;;;5029235;28;20954;-77
2022/03/01 13:40:48;;;;;;;7.23;4.80;;;;;;;;;;5034978;28;20433;-77
2022/03/01 13:43:16;;;;;;;5.20;4.00;;;;;;;;;;5027922;28;20825;-77
2022/03/01 13:45:43;;;;;;;5.63;4.43;;;;;;;;;;5024841;28;20419;-77
2022/03/01 13:48:16;;;;;;;7.53;4.07;;;;;;;;;;5023978;28;20445;-77
2022/03/01 13:50:46;;;;;;;7.43;4.33;;;;;;;;;;5029403;28;20446;-77
2022/03/01 13:53:24;;;;;;;7.80;4.10;;;;;;;;;;5032562;28;20422;-77
2022/03/01 13:55:53;;;;;;;5.40;4.23;;;;;;;;;;5029517;28;20456;-77
2022/03/01 13:58:23;;;;;;;6.33;4.10;;;;;;;;;;5025319;28;20970;-77
2022/03/01 14:00:50;;;;;;;5.90;4.10;;;;;;;;;;5029076;28;20422;-77
2022/03/01 14:03:18;;;;;;;4.97;4.10;;;;;;;;;;5028437;28;20422;-76
2022/03/01 14:05:53;;;;;;;6.57;4.27;;;;;;;;;;5032364;28;20508;-77
2022/03/01 14:08:20;;;;;;;5.70;3.97;;;;;;;;;;5025928;28;20456;-77
2022/03/01 14:10:50;;;;;;;5.47;4.90;;;;;;;;;;5033788;28;20419;-77
2022/03/01 14:13:17;;;;;;;8.48;4.07;;;;;;;;;;5018964;28;20433;-76
2022/03/01 14:15:46;;;;;;;6.00;4.67;;;;;;;;;;5031908;28;20202;-77
2022/03/01 14:18:12;;;;;;;5.37;4.63;;;;;;;;;;5022580;28;20458;-77
2022/03/01 14:20:39;;;;;;;7.45;4.10;;;;;;;;;;5022957;28;20417;-81
2022/03/01 14:23:05;;;;;;;5.70;3.83;;;;;;;;;;5046555;28;20419;-77
2022/03/01 14:25:31;;;;;;;4.37;3.83;;;;;;;;;;5045452;28;20256;-78
2022/03/01 14:27:57;;;;;;;5.97;3.65;;;;;;;;;;5030799;28;20495;-77
2022/03/01 14:30:23;;;;;;;5.33;4.00;;;;;;;;;;5027478;28;20599;-77
2022/03/01 14:32:51;;;;;;;5.97;4.03;;;;;;;;;;5024178;28;20515;-77